Time;durP1;ratioP1;P1;durP2;ratioP2;P2;SDS_P1;SDS_P2;PMS_P1;PMS_P2;Temp;Humidity;BMP_temperature;BMP_pressure;BME280_temperature;BME280_humidity;BME280_pressure;Samples;Min_cycle;Max_cycle;Signal;HPM_P1;HPM_P2
2023/05/26 00:01:24;;;;;;;19.13;12.10;;;15.40;99.90;;;;;;4995616;28;20113;-62
2023/05/26 00:03:50;;;;;;;18.30;11.48;;;15.40;99.90;;;;;;4995601;28;20361;-62
2023/05/26 00:06:20;;;;;;;20.58;11.80;;;15.40;99.90;;;;;;4995801;28;20023;-61
2023/05/26 00:08:49;;;;;;;24.50;11.75;;;15.40;99.90;;;;;;4996007;28;20549;-61
2023/05/26 00:11:16;;;;;;;18.08;11.05;;;15.40;99.90;;;;;;4995627;28;20033;-62
2023/05/26 00:13:42;;;;;;;16.08;11.00;;;15.50;99.90;;;;;;4995472;28;20033;-61
2023/05/26 00:16:09;;;;;;;34.80;18.67;;;15.50;99.90;;;;;;4995703;28;20087;-62
2023/05/26 00:18:35;;;;;;;29.77;17.60;;;15.60;99.90;;;;;;4995620;28;20113;-62
2023/05/26 00:21:01;;;;;;;22.67;13.90;;;15.60;99.90;;;;;;4995534;28;20027;-61
2023/05/26 00:23:27;;;;;;;26.15;14.77;;;15.70;99.90;;;;;;4978189;28;20439;-62
2023/05/26 00:25:53;;;;;;;29.33;17.17;;;15.70;99.90;;;;;;4995668;28;20045;-61
2023/05/26 00:28:19;;;;;;;34.05;18.48;;;15.60;99.90;;;;;;4995393;28;20396;-61
2023/05/26 00:30:45;;;;;;;30.02;16.40;;;15.60;99.90;;;;;;4995407;28;20031;-62
2023/05/26 00:33:11;;;;;;;28.05;15.98;;;15.70;99.90;;;;;;4995380;28;20018;-62
2023/05/26 00:35:38;;;;;;;22.90;13.65;;;15.70;99.90;;;;;;4995264;28;20037;-61
2023/05/26 00:38:05;;;;;;;24.13;13.80;;;15.70;99.90;;;;;;4978039;28;20109;-61
2023/05/26 00:40:32;;;;;;;23.58;14.02;;;15.70;99.90;;;;;;4995448;28;20034;-62
2023/05/26 00:42:59;;;;;;;20.13;12.88;;;15.80;99.90;;;;;;4994948;28;20465;-62
2023/05/26 00:45:25;;;;;;;18.70;12.70;;;15.80;99.90;;;;;;4994939;28;20034;-62
2023/05/26 00:47:51;;;;;;;19.67;11.90;;;15.80;99.90;;;;;;4995185;28;20035;-62
2023/05/26 00:50:17;;;;;;;17.40;12.73;;;15.80;99.90;;;;;;4995166;28;20035;-62
2023/05/26 00:52:44;;;;;;;16.27;11.40;;;15.70;99.90;;;;;;4995234;28;20026;-62
2023/05/26 00:55:10;;;;;;;17.73;12.02;;;15.70;99.90;;;;;;4977498;28;20126;-62
2023/05/26 00:57:36;;;;;;;18.65;12.43;;;15.70;99.90;;;;;;4995265;28;20048;-61
2023/05/26 01:00:05;;;;;;;19.27;12.45;;;15.80;99.90;;;;;;4995002;28;20032;-61
2023/05/26 01:02:31;;;;;;;18.77;12.43;;;15.90;99.90;;;;;;4995070;28;20038;-62
2023/05/26 01:04:58;;;;;;;20.00;12.80;;;15.90;99.90;;;;;;4977660;28;20045;-61
2023/05/26 01:07:24;;;;;;;16.95;12.07;;;15.90;99.90;;;;;;4977721;28;20040;-62
2023/05/26 01:09:51;;;;;;;17.80;11.85;;;15.90;99.90;;;;;;4994781;28;20435;-62
2023/05/26 01:12:28;;;;;;;22.17;13.00;;;15.80;99.90;;;;;;4994760;28;20109;-62
2023/05/26 01:15:04;;;;;;;17.23;12.77;;;15.80;99.90;;;;;;4994980;28;20029;-62
2023/05/26 01:17:34;;;;;;;18.42;11.73;;;15.80;99.90;;;;;;4977568;28;20032;-62
2023/05/26 01:20:19;;;;;;;19.30;12.07;;;15.80;99.90;;;;;;4994866;28;20485;-62
2023/05/26 01:22:47;;;;;;;19.67;13.07;;;15.90;99.90;;;;;;4995059;28;20026;-62
2023/05/26 01:25:32;;;;;;;20.40;12.30;;;15.90;99.90;;;;;;4977188;28;20032;-62
2023/05/26 01:28:07;;;;;;;17.33;12.52;;;15.90;99.90;;;;;;4994916;28;20443;-62
2023/05/26 01:30:38;;;;;;;20.08;13.05;;;15.80;99.90;;;;;;4994823;28;20408;-62
2023/05/26 01:33:04;;;;;;;25.83;16.80;;;15.90;99.90;;;;;;4994792;28;20105;-62
2023/05/26 01:35:30;;;;;;;24.15;15.73;;;15.90;99.90;;;;;;4994877;28;20069;-63
2023/05/26 01:37:58;;;;;;;25.38;14.02;;;15.90;99.90;;;;;;4977350;28;20041;-62
2023/05/26 01:40:24;;;;;;;20.88;13.80;;;15.90;99.90;;;;;;4994835;28;20038;-62
2023/05/26 01:43:09;;;;;;;24.35;14.13;;;15.90;99.90;;;;;;4994693;28;20039;-61
2023/05/26 01:45:48;;;;;;;21.90;13.55;;;15.90;99.90;;;;;;4977192;28;20153;-62
2023/05/26 01:48:17;;;;;;;19.90;13.05;;;15.80;99.90;;;;;;4994462;28;20117;-62
2023/05/26 01:50:51;;;;;;;20.13;13.77;;;15.90;99.90;;;;;;4994706;28;20061;-62
2023/05/26 01:53:21;;;;;;;17.70;13.57;;;15.90;99.90;;;;;;4994571;28;20034;-62
2023/05/26 01:55:51;;;;;;;21.45;12.90;;;15.90;99.90;;;;;;4977478;28;20053;-62
2023/05/26 01:58:20;;;;;;;21.77;13.73;;;16.00;99.90;;;;;;4980076;28;20036;-62
2023/05/26 02:00:47;;;;;;;18.65;13.13;;;16.00;99.90;;;;;;4980534;28;20031;-61
2023/05/26 02:03:14;;;;;;;18.33;12.05;;;15.90;99.90;;;;;;4998385;28;20030;-61
2023/05/26 02:05:41;;;;;;;18.67;12.30;;;16.00;99.90;;;;;;4998488;28;20038;-61
2023/05/26 02:08:10;;;;;;;17.38;11.82;;;16.00;99.90;;;;;;4980359;28;20121;-62
2023/05/26 02:10:36;;;;;;;20.42;12.07;;;16.00;99.90;;;;;;4980333;28;20073;-63
2023/05/26 02:13:03;;;;;;;19.40;12.43;;;16.00;99.90;;;;;;4998131;28;20072;-61
2023/05/26 02:15:30;;;;;;;17.10;12.55;;;16.00;99.90;;;;;;4997918;28;20030;-61
2023/05/26 02:17:57;;;;;;;20.17;13.02;;;16.00;99.90;;;;;;4980252;28;20035;-62
2023/05/26 02:20:26;;;;;;;20.67;12.70;;;16.10;99.90;;;;;;4980343;28;20034;-62
2023/05/26 02:22:52;;;;;;;17.63;11.10;;;16.00;99.90;;;;;;4980235;28;20037;-62
2023/05/26 02:25:19;;;;;;;17.77;11.80;;;16.10;99.90;;;;;;4997864;28;20101;-61
2023/05/26 02:27:45;;;;;;;20.27;12.10;;;16.00;99.90;;;;;;4997576;28;20053;-62
2023/05/26 02:30:11;;;;;;;18.33;12.27;;;15.90;99.90;;;;;;4997481;28;20018;-61
2023/05/26 02:32:37;;;;;;;27.58;11.60;;;15.90;99.90;;;;;;4980270;28;20041;-61
2023/05/26 02:35:04;;;;;;;15.82;12.45;;;16.00;99.90;;;;;;4997560;28;20019;-62
2023/05/26 02:37:31;;;;;;;18.40;12.95;;;15.90;99.90;;;;;;4980036;28;20080;-62
2023/05/26 02:39:57;;;;;;;24.25;12.75;;;15.80;99.90;;;;;;4997564;28;20027;-62
2023/05/26 02:42:23;;;;;;;17.55;12.57;;;15.80;99.90;;;;;;4976570;28;20069;-61
2023/05/26 02:44:50;;;;;;;16.85;12.55;;;15.80;99.90;;;;;;4977897;28;20117;-61
2023/05/26 02:47:16;;;;;;;19.70;12.57;;;15.90;99.90;;;;;;4976669;28;20034;-62
2023/05/26 02:49:45;;;;;;;17.88;11.95;;;15.90;99.90;;;;;;4976481;28;20035;-62
2023/05/26 02:52:11;;;;;;;19.02;11.98;;;15.90;99.90;;;;;;4976383;28;20030;-61
2023/05/26 02:54:37;;;;;;;22.42;12.30;;;15.90;99.90;;;;;;4976506;28;20432;-62
2023/05/26 02:57:03;;;;;;;18.65;12.80;;;15.90;99.90;;;;;;4976521;28;20094;-62
2023/05/26 02:59:29;;;;;;;20.42;12.32;;;15.80;99.90;;;;;;4976263;28;20067;-62
2023/05/26 03:01:55;;;;;;;16.45;12.75;;;15.80;99.90;;;;;;4977692;28;20038;-62
2023/05/26 03:04:21;;;;;;;15.82;11.80;;;15.80;99.90;;;;;;4976220;28;20093;-63
2023/05/26 03:06:47;;;;;;;19.02;12.18;;;15.80;99.90;;;;;;4977556;28;20448;-62
2023/05/26 03:09:16;;;;;;;20.45;11.63;;;15.70;99.90;;;;;;4975529;28;20037;-62
2023/05/26 03:11:42;;;;;;;20.60;12.68;;;15.70;99.90;;;;;;4977353;28;20109;-61
2023/05/26 03:14:08;;;;;;;19.38;12.60;;;15.80;99.90;;;;;;4977301;28;20508;-62
2023/05/26 03:16:34;;;;;;;20.95;12.30;;;15.70;99.90;;;;;;4977514;28;20461;-61
2023/05/26 03:19:01;;;;;;;19.02;13.15;;;15.70;99.90;;;;;;4975991;28;20026;-61
2023/05/26 03:21:27;;;;;;;18.15;12.35;;;15.70;99.90;;;;;;4976052;28;20101;-62
2023/05/26 03:23:54;;;;;;;22.27;13.20;;;15.60;99.90;;;;;;4975983;28;20041;-61
2023/05/26 03:26:22;;;;;;;19.17;12.73;;;15.60;99.90;;;;;;4977113;28;20022;-62
2023/05/26 03:28:48;;;;;;;19.13;12.70;;;15.60;99.90;;;;;;4975913;28;20496;-62
2023/05/26 03:31:14;;;;;;;26.63;14.23;;;15.60;99.90;;;;;;4975766;28;20097;-62
2023/05/26 03:33:41;;;;;;;27.42;15.48;;;15.50;99.90;;;;;;4975705;28;20441;-62
2023/05/26 03:36:08;;;;;;;30.08;13.90;;;15.60;99.90;;;;;;4975719;28;20077;-62
2023/05/26 03:38:35;;;;;;;23.27;13.60;;;15.70;99.90;;;;;;4975804;28;20027;-62
2023/05/26 03:41:02;;;;;;;24.90;13.75;;;15.70;99.90;;;;;;4975714;28;20081;-61
2023/05/26 03:43:30;;;;;;;27.63;13.55;;;15.70;99.90;;;;;;4975570;28;20063;-62
2023/05/26 03:45:56;;;;;;;28.45;14.82;;;15.80;99.90;;;;;;4976634;28;20066;-62
2023/05/26 03:48:22;;;;;;;21.90;14.13;;;15.80;99.90;;;;;;4975334;28;20034;-62
2023/05/26 03:50:49;;;;;;;35.10;14.70;;;15.70;99.90;;;;;;4975489;28;20026;-62
2023/05/26 03:53:15;;;;;;;32.15;16.17;;;15.80;99.90;;;;;;4976667;28;20054;-62
2023/05/26 03:55:42;;;;;;;28.27;15.77;;;15.90;99.90;;;;;;4975376;28;20022;-61
2023/05/26 03:58:09;;;;;;;35.55;16.30;;;15.90;99.90;;;;;;4975248;28;20053;-62
2023/05/26 04:00:35;;;;;;;39.53;16.65;;;15.90;99.90;;;;;;4975053;28;20034;-62
2023/05/26 04:03:01;;;;;;;33.20;16.15;;;15.90;99.90;;;;;;4976615;28;20031;-61
2023/05/26 04:05:29;;;;;;;36.83;15.48;;;15.90;99.90;;;;;;4975235;28;20254;-62
2023/05/26 04:07:56;;;;;;;47.22;19.25;;;15.90;99.90;;;;;;4975063;28;20030;-62
2023/05/26 04:10:22;;;;;;;65.20;22.45;;;15.90;99.90;;;;;;4976102;28;20035;-61
2023/05/26 04:12:48;;;;;;;62.92;22.02;;;15.90;99.90;;;;;;4975100;28;20097;-61
2023/05/26 04:15:14;;;;;;;67.15;25.15;;;16.00;99.90;;;;;;4976295;28;20038;-61
2023/05/26 04:17:41;;;;;;;97.40;31.35;;;16.00;99.90;;;;;;4974778;28;20134;-62
2023/05/26 04:20:10;;;;;;;95.05;29.70;;;16.00;99.90;;;;;;4975478;28;20094;-61
2023/05/26 04:22:40;;;;;;;102.35;34.40;;;16.10;99.90;;;;;;4974637;28;20023;-62
2023/05/26 04:25:09;;;;;;;100.85;33.65;;;16.10;99.90;;;;;;4976109;28;20039;-62
2023/05/26 04:28:02;;;;;;;100.97;33.78;;;16.20;99.90;;;;;;4972989;28;20038;-62
2023/05/26 04:31:03;;;;;;;102.90;35.13;;;16.20;99.90;;;;;;4953619;28;20034;-61
2023/05/26 04:33:40;;;;;;;96.80;35.55;;;16.20;99.90;;;;;;4974743;28;20163;-62
2023/05/26 04:36:25;;;;;;;99.45;37.10;;;16.20;99.90;;;;;;4975884;28;20066;-61
2023/05/26 04:38:51;;;;;;;134.73;46.25;;;16.30;99.90;;;;;;4974396;28;20033;-62
2023/05/26 04:41:18;;;;;;;168.45;52.33;;;16.40;99.90;;;;;;4974726;28;20027;-62
2023/05/26 04:43:45;;;;;;;197.35;55.83;;;16.40;99.90;;;;;;4990864;28;20050;-61
2023/05/26 04:46:13;;;;;;;209.02;59.80;;;16.40;99.90;;;;;;4961604;28;20041;-61
2023/05/26 04:48:39;;;;;;;227.27;59.05;;;16.50;99.90;;;;;;4995062;28;20385;-61
2023/05/26 04:51:08;;;;;;;199.65;57.03;;;16.50;99.90;;;;;;4977678;28;20034;-61
2023/05/26 04:53:35;;;;;;;258.27;68.40;;;16.50;99.90;;;;;;4977458;28;20034;-62
2023/05/26 04:56:02;;;;;;;247.18;65.50;;;16.30;99.90;;;;;;4977604;28;20114;-61
2023/05/26 04:58:29;;;;;;;252.40;66.63;;;16.50;99.90;;;;;;4977467;28;20503;-61
2023/05/26 05:00:56;;;;;;;260.80;68.10;;;16.60;99.90;;;;;;4977389;28;20132;-61
2023/05/26 05:03:48;;;;;;;254.15;67.05;;;16.60;99.90;;;;;;4991767;28;20034;-61
2023/05/26 05:06:32;;;;;;;252.10;66.55;;;16.60;99.90;;;;;;4977292;28;20503;-61
2023/05/26 05:08:58;;;;;;;230.25;65.07;;;16.60;99.90;;;;;;4977557;28;20386;-61
2023/05/26 05:11:24;;;;;;;250.45;68.15;;;16.70;99.90;;;;;;4977073;28;20037;-61
2023/05/26 05:13:51;;;;;;;247.38;69.78;;;16.70;99.90;;;;;;4991754;28;20027;-61
2023/05/26 05:16:17;;;;;;;228.63;67.75;;;16.70;99.90;;;;;;4976814;28;20022;-61
2023/05/26 05:18:44;;;;;;;238.38;68.55;;;16.60;99.90;;;;;;4977518;28;20038;-62
2023/05/26 05:21:10;;;;;;;241.65;66.65;;;16.50;99.90;;;;;;4977167;28;20158;-62
2023/05/26 05:23:37;;;;;;;229.40;69.03;;;16.60;99.90;;;;;;4975155;28;20125;-62
2023/05/26 05:26:04;;;;;;;239.40;70.90;;;16.60;99.90;;;;;;4991968;28;20459;-62
2023/05/26 05:28:32;;;;;;;238.70;68.47;;;16.60;99.90;;;;;;4987123;28;20430;-62
2023/05/26 05:31:03;;;;;;;226.30;68.13;;;16.70;99.90;;;;;;4996206;28;20312;-61
2023/05/26 05:33:40;;;;;;;231.73;67.97;;;16.70;99.90;;;;;;4997008;28;20030;-61
2023/05/26 05:36:06;;;;;;;253.38;72.63;;;16.60;99.90;;;;;;4998518;28;20039;-62
2023/05/26 05:38:32;;;;;;;238.57;73.40;;;16.40;99.90;;;;;;4996659;28;20050;-62
2023/05/26 05:40:59;;;;;;;238.95;72.07;;;16.40;99.90;;;;;;4982018;28;20034;-62
2023/05/26 05:43:26;;;;;;;251.30;76.38;;;16.50;99.90;;;;;;4980526;28;20581;-61
2023/05/26 05:45:52;;;;;;;254.57;76.43;;;16.70;99.90;;;;;;4979799;28;20027;-61
2023/05/26 05:48:57;;;;;;;255.27;76.85;;;16.80;99.90;;;;;;4984148;28;20062;-61
2023/05/26 05:51:29;;;;;;;227.15;69.47;;;16.80;99.90;;;;;;4980650;28;20030;-61
2023/05/26 05:53:56;;;;;;;226.13;70.63;;;16.80;99.90;;;;;;4982091;28;20026;-61
2023/05/26 05:56:23;;;;;;;246.48;74.63;;;16.80;99.90;;;;;;4984296;28;20091;-61
2023/05/26 05:58:50;;;;;;;235.95;75.25;;;16.70;99.90;;;;;;4999877;28;20041;-61
2023/05/26 06:01:16;;;;;;;230.88;74.05;;;16.70;99.90;;;;;;4988742;28;20026;-61
2023/05/26 06:03:42;;;;;;;200.52;65.05;;;16.80;99.90;;;;;;4980448;28;20619;-61
2023/05/26 06:06:08;;;;;;;191.57;62.92;;;16.70;99.90;;;;;;4980398;28;20125;-61
2023/05/26 06:08:36;;;;;;;157.27;56.65;;;16.70;99.90;;;;;;4980077;28;20125;-61
2023/05/26 06:11:05;;;;;;;178.20;60.05;;;16.70;99.90;;;;;;4975506;28;20436;-61
2023/05/26 06:13:35;;;;;;;172.90;58.83;;;16.70;99.90;;;;;;4985472;28;20370;-61
2023/05/26 06:16:02;;;;;;;176.25;62.63;;;16.70;99.90;;;;;;4976752;28;20432;-62
2023/05/26 06:18:29;;;;;;;169.43;60.70;;;16.60;99.90;;;;;;4976585;28;20035;-61
2023/05/26 06:20:55;;;;;;;163.73;57.65;;;16.70;99.90;;;;;;4977967;28;20031;-61
2023/05/26 06:23:22;;;;;;;151.48;57.00;;;16.70;99.90;;;;;;4994815;28;20084;-61
2023/05/26 06:25:48;;;;;;;179.95;58.88;;;16.80;99.90;;;;;;4979736;28;20030;-62
2023/05/26 06:28:16;;;;;;;161.75;60.05;;;16.80;99.90;;;;;;4979393;28;20027;-62
2023/05/26 06:30:43;;;;;;;174.48;61.72;;;16.80;99.90;;;;;;4980451;28;20034;-61
2023/05/26 06:33:31;;;;;;;188.40;64.20;;;16.80;99.90;;;;;;4979256;28;20062;-62
2023/05/26 06:35:58;;;;;;;165.68;58.28;;;16.70;99.90;;;;;;4980883;28;20030;-62
2023/05/26 06:38:24;;;;;;;163.15;58.47;;;16.70;99.90;;;;;;4979684;28;20040;-62
2023/05/26 06:40:53;;;;;;;171.15;56.78;;;16.70;99.90;;;;;;4979749;28;20095;-62
2023/05/26 06:43:20;;;;;;;170.60;54.55;;;16.70;99.90;;;;;;4978490;28;20504;-62
2023/05/26 06:45:46;;;;;;;161.40;53.83;;;16.70;99.90;;;;;;4979724;28;20030;-62
2023/05/26 06:48:12;;;;;;;165.05;52.53;;;16.80;99.90;;;;;;4978961;28;20046;-62
2023/05/26 06:50:47;;;;;;;154.73;51.28;;;16.80;99.90;;;;;;4978847;28;20026;-63
2023/05/26 06:53:14;;;;;;;156.07;51.17;;;16.70;99.90;;;;;;4978686;28;20112;-62
2023/05/26 06:55:40;;;;;;;141.32;49.75;;;16.80;99.90;;;;;;4996392;28;20116;-62
2023/05/26 06:58:09;;;;;;;131.43;46.85;;;16.80;99.90;;;;;;4995309;28;20045;-63
2023/05/26 07:00:38;;;;;;;127.85;46.90;;;16.70;99.90;;;;;;4979027;28;20023;-61
2023/05/26 07:03:15;;;;;;;109.65;40.03;;;16.70;99.90;;;;;;4995214;28;20141;-60
2023/05/26 07:05:46;;;;;;;117.93;40.08;;;16.80;99.90;;;;;;4995395;28;20042;-60
2023/05/26 07:08:12;;;;;;;104.18;39.08;;;16.70;99.90;;;;;;4979102;28;20042;-60
2023/05/26 07:10:38;;;;;;;104.35;41.92;;;16.60;99.90;;;;;;4979062;28;20022;-60
2023/05/26 07:13:05;;;;;;;96.38;39.85;;;16.60;99.90;;;;;;4992941;28;20340;-60
2023/05/26 07:15:34;;;;;;;101.00;39.07;;;16.60;99.90;;;;;;4984925;28;20022;-61
2023/05/26 07:18:02;;;;;;;107.38;42.58;;;16.60;99.90;;;;;;4979054;28;20275;-61
2023/05/26 07:20:30;;;;;;;130.27;48.40;;;16.40;99.90;;;;;;4978801;28;20171;-61
2023/05/26 07:22:56;;;;;;;130.27;47.42;;;16.30;99.90;;;;;;4978887;28;20060;-61
2023/05/26 07:25:27;;;;;;;;;;;16.40;99.90;;;;;;4979285;28;20022;-61
2023/05/26 07:27:54;;;;;;;134.88;52.03;;;16.50;99.90;;;;;;4994883;28;19914;-61
2023/05/26 07:30:21;;;;;;;136.57;53.25;;;16.70;99.90;;;;;;4977420;28;20173;-61
2023/05/26 07:33:03;;;;;;;124.22;50.80;;;16.70;99.90;;;;;;4978891;28;20038;-61
2023/05/26 07:35:29;;;;;;;137.15;52.47;;;16.70;99.90;;;;;;4995902;28;20030;-62
2023/05/26 07:37:56;;;;;;;122.53;51.05;;;16.80;99.90;;;;;;4986040;28;20034;-62
2023/05/26 07:40:22;;;;;;;129.05;53.97;;;16.90;99.90;;;;;;4992982;28;20030;-62
2023/05/26 07:42:48;;;;;;;108.38;46.72;;;17.00;99.90;;;;;;4996147;28;20475;-62
2023/05/26 07:45:15;;;;;;;95.55;43.88;;;17.00;99.90;;;;;;4996004;28;20464;-62
2023/05/26 07:47:50;;;;;;;78.72;34.90;;;17.10;99.90;;;;;;4995454;28;20478;-62
2023/05/26 07:50:16;;;;;;;59.35;28.27;;;17.20;99.90;;;;;;4993818;28;20022;-62
2023/05/26 07:52:42;;;;;;;50.75;24.40;;;17.30;99.90;;;;;;4989957;28;20142;-62
2023/05/26 07:55:08;;;;;;;48.83;24.23;;;17.20;99.90;;;;;;4986889;28;20033;-62
2023/05/26 07:57:34;;;;;;;48.45;24.25;;;17.30;99.90;;;;;;4993872;28;20041;-62
2023/05/26 08:00:00;;;;;;;43.08;23.50;;;17.30;99.90;;;;;;4995531;28;20050;-62
2023/05/26 08:02:29;;;;;;;41.58;21.80;;;17.40;99.90;;;;;;4995475;28;20050;-62
2023/05/26 08:04:55;;;;;;;36.42;19.98;;;17.40;99.90;;;;;;4994998;28;20385;-63
2023/05/26 08:07:21;;;;;;;31.52;17.80;;;17.40;99.90;;;;;;4996167;28;20125;-62
2023/05/26 08:09:47;;;;;;;32.25;16.85;;;17.30;99.90;;;;;;4995995;28;20037;-62
2023/05/26 08:12:14;;;;;;;32.20;17.38;;;17.30;99.90;;;;;;4996120;28;20414;-63
2023/05/26 08:14:40;;;;;;;27.88;15.32;;;17.20;99.90;;;;;;4996406;28;20030;-62
2023/05/26 08:17:06;;;;;;;27.88;15.57;;;17.30;99.90;;;;;;4996359;28;20023;-63
2023/05/26 08:19:32;;;;;;;26.58;15.75;;;17.20;99.90;;;;;;4989057;28;20022;-63
2023/05/26 08:21:58;;;;;;;33.42;16.42;;;17.30;99.90;;;;;;4987883;28;20376;-63
2023/05/26 08:24:25;;;;;;;29.38;16.38;;;17.40;99.90;;;;;;4983015;28;20522;-62
2023/05/26 08:26:51;;;;;;;34.50;16.35;;;17.40;99.90;;;;;;4985652;28;20057;-63
2023/05/26 08:29:17;;;;;;;28.83;17.40;;;17.20;99.90;;;;;;4995881;28;20109;-63
2023/05/26 08:31:43;;;;;;;33.42;18.13;;;17.40;99.90;;;;;;4994210;28;20041;-63
2023/05/26 08:34:09;;;;;;;31.50;17.25;;;17.30;99.90;;;;;;4986493;28;20027;-63
2023/05/26 08:36:35;;;;;;;33.92;19.02;;;17.40;99.90;;;;;;4976278;28;20041;-62
2023/05/26 08:39:02;;;;;;;30.55;15.52;;;17.40;99.90;;;;;;4976389;28;20019;-63
2023/05/26 08:41:55;;;;;;;30.77;16.52;;;17.30;99.90;;;;;;4976365;28;20031;-63
2023/05/26 08:44:26;;;;;;;34.58;19.27;;;17.40;99.90;;;;;;4976022;28;20038;-63
2023/05/26 08:46:57;;;;;;;32.58;18.60;;;17.40;99.90;;;;;;4968178;28;20492;-63
2023/05/26 08:49:24;;;;;;;34.33;17.63;;;17.60;99.90;;;;;;4994616;28;20036;-63
2023/05/26 08:52:04;;;;;;;34.22;17.85;;;17.70;99.90;;;;;;4995193;28;20150;-63
2023/05/26 08:54:31;;;;;;;27.83;16.40;;;17.70;99.90;;;;;;4981314;28;20077;-63
2023/05/26 08:56:58;;;;;;;23.17;15.95;;;17.90;99.90;;;;;;4994520;28;20053;-62
2023/05/26 08:59:27;;;;;;;27.70;16.73;;;18.10;99.90;;;;;;4992129;28;20033;-62
2023/05/26 09:01:53;;;;;;;33.38;18.02;;;18.20;99.90;;;;;;4989340;28;20041;-62
2023/05/26 09:04:19;;;;;;;29.02;16.92;;;18.40;99.90;;;;;;5007690;28;20033;-62
2023/05/26 09:06:45;;;;;;;25.92;15.70;;;18.50;99.90;;;;;;5013914;28;20088;-62
2023/05/26 09:09:13;;;;;;;23.92;13.65;;;18.90;99.90;;;;;;5013886;28;20038;-62
2023/05/26 09:11:42;;;;;;;24.92;15.15;;;19.10;99.90;;;;;;4997681;28;20038;-62
2023/05/26 09:14:11;;;;;;;23.52;14.13;;;19.50;99.90;;;;;;4994374;28;20061;-62
2023/05/26 09:16:38;;;;;;;24.85;14.55;;;19.70;99.90;;;;;;4987834;28;20023;-61
2023/05/26 09:19:04;;;;;;;27.50;15.45;;;19.90;99.90;;;;;;4978710;28;20022;-61
2023/05/26 09:21:31;;;;;;;23.35;14.35;;;20.10;99.90;;;;;;4982555;28;20037;-62
2023/05/26 09:24:00;;;;;;;22.13;14.00;;;20.50;99.90;;;;;;5004929;28;20078;-61
2023/05/26 09:26:38;;;;;;;31.15;16.95;;;20.70;99.90;;;;;;4995234;28;20034;-62
2023/05/26 09:29:06;;;;;;;29.55;16.67;;;20.80;99.90;;;;;;4993203;28;20030;-61
2023/05/26 09:31:40;;;;;;;29.65;16.65;;;20.70;99.90;;;;;;4994949;28;20089;-60
2023/05/26 09:34:08;;;;;;;26.17;14.95;;;20.90;99.90;;;;;;4988414;28;20026;-61
2023/05/26 09:36:36;;;;;;;19.50;11.98;;;21.20;99.90;;;;;;4994289;28;20028;-61
2023/05/26 09:39:07;;;;;;;18.48;10.32;;;21.10;99.90;;;;;;4990582;28;20484;-62
2023/05/26 09:41:40;;;;;;;16.10;9.55;;;21.10;99.90;;;;;;4992817;28;20512;-61
2023/05/26 09:44:12;;;;;;;16.67;9.43;;;21.00;99.90;;;;;;4994146;28;20050;-61
2023/05/26 09:46:39;;;;;;;14.55;9.68;;;20.80;99.90;;;;;;4994443;28;20030;-61
2023/05/26 09:49:23;;;;;;;16.73;10.23;;;21.00;99.90;;;;;;4993705;28;20018;-61
2023/05/26 09:51:50;;;;;;;19.08;10.52;;;21.10;99.90;;;;;;4994572;28;20427;-61
2023/05/26 09:54:16;;;;;;;18.30;7.97;;;21.20;99.90;;;;;;4993900;28;20036;-61
2023/05/26 09:56:53;;;;;;;16.20;8.55;;;21.30;99.90;;;;;;4985845;28;20027;-62
2023/05/26 09:59:21;;;;;;;18.38;6.82;;;21.20;99.90;;;;;;4988427;28;20027;-61
2023/05/26 10:01:48;;;;;;;17.60;8.70;;;21.40;99.90;;;;;;4975463;28;20117;-61
2023/05/26 10:04:15;;;;;;;18.67;8.48;;;21.40;99.90;;;;;;4985949;28;20030;-61
2023/05/26 10:06:43;;;;;;;19.92;9.63;;;21.50;99.90;;;;;;4977107;28;20376;-61
2023/05/26 10:09:13;;;;;;;19.42;11.23;;;21.60;99.90;;;;;;4987860;28;20484;-62
2023/05/26 10:12:03;;;;;;;26.25;12.10;;;21.50;99.90;;;;;;4992334;28;20035;-61
2023/05/26 10:14:42;;;;;;;22.40;12.10;;;21.50;99.90;;;;;;4975045;28;20473;-61
2023/05/26 10:17:26;;;;;;;19.02;9.93;;;22.40;99.90;;;;;;4983058;28;20033;-61
2023/05/26 10:19:53;;;;;;;24.17;10.60;;;23.00;99.90;;;;;;4989715;28;20057;-61
2023/05/26 10:22:44;;;;;;;15.32;9.20;;;22.90;99.90;;;;;;4998438;28;20034;-61
2023/05/26 10:25:45;;;;;;;18.30;9.63;;;23.40;99.90;;;;;;4998077;28;20041;-62
2023/05/26 10:28:17;;;;;;;18.73;9.90;;;23.40;99.90;;;;;;4980258;28;20048;-60
2023/05/26 10:30:43;;;;;;;20.52;10.63;;;23.50;99.50;;;;;;4995439;28;20038;-61
2023/05/26 10:33:16;;;;;;;23.08;11.50;;;23.60;99.90;;;;;;4989228;28;20032;-61
2023/05/26 10:35:57;;;;;;;17.45;10.65;;;23.60;99.90;;;;;;4997897;28;20058;-61
2023/05/26 10:38:29;;;;;;;14.13;9.07;;;23.70;99.90;;;;;;4998116;28;20026;-61
2023/05/26 10:40:55;;;;;;;22.40;11.27;;;23.80;97.70;;;;;;4998018;28;20389;-61
2023/05/26 10:43:28;;;;;;;18.48;10.48;;;23.50;99.60;;;;;;4997776;28;20121;-61
2023/05/26 10:45:57;;;;;;;21.00;11.52;;;23.70;98.40;;;;;;4996752;28;20033;-61
2023/05/26 10:48:40;;;;;;;15.90;9.93;;;23.60;98.70;;;;;;4990133;28;20038;-60
2023/05/26 10:51:24;;;;;;;21.65;10.88;;;23.50;98.50;;;;;;4996684;28;20030;-61
2023/05/26 10:53:56;;;;;;;9.75;5.95;;;23.20;98.40;;;;;;4997371;28;20034;-61
2023/05/26 10:56:41;;;;;;;9.48;6.10;;;23.30;93.50;;;;;;4997330;28;20030;-61
2023/05/26 10:59:07;;;;;;;9.25;5.43;;;23.30;94.60;;;;;;4996022;28;20030;-61
2023/05/26 11:01:33;;;;;;;13.27;6.75;;;23.00;97.10;;;;;;4996570;28;20032;-61
2023/05/26 11:04:05;;;;;;;19.70;9.13;;;22.60;95.90;;;;;;4994517;28;20027;-61
2023/05/26 11:06:51;;;;;;;24.30;10.77;;;22.30;98.30;;;;;;4996042;28;20034;-61
2023/05/26 11:09:22;;;;;;;11.57;7.90;;;22.40;99.90;;;;;;4993258;28;20114;-61
2023/05/26 11:11:55;;;;;;;19.13;7.68;;;22.40;99.90;;;;;;4995297;28;20391;-60
2023/05/26 11:14:22;;;;;;;17.17;8.52;;;21.90;99.90;;;;;;4997230;28;20026;-61
2023/05/26 11:16:49;;;;;;;14.23;8.52;;;21.90;99.90;;;;;;4985036;28;20102;-61
2023/05/26 11:19:36;;;;;;;17.50;9.23;;;21.90;99.90;;;;;;4996451;28;20037;-61
2023/05/26 11:22:08;;;;;;;14.82;9.52;;;21.90;99.90;;;;;;4996476;28;20042;-60
2023/05/26 11:24:35;;;;;;;15.30;9.52;;;21.50;99.90;;;;;;4996295;28;20114;-61
2023/05/26 11:27:02;;;;;;;14.77;9.63;;;21.30;99.90;;;;;;4994496;28;20069;-62
2023/05/26 11:29:29;;;;;;;14.05;8.93;;;21.00;99.90;;;;;;4985207;28;20038;-61
2023/05/26 11:31:55;;;;;;;15.48;8.88;;;20.90;99.90;;;;;;4976477;28;20086;-61
2023/05/26 11:34:22;;;;;;;20.00;9.73;;;20.80;99.90;;;;;;4976360;28;20023;-61
2023/05/26 11:36:51;;;;;;;15.02;9.57;;;20.60;99.90;;;;;;4976687;28;20389;-61
2023/05/26 11:39:17;;;;;;;19.73;10.40;;;20.70;99.90;;;;;;4991355;28;20026;-61
2023/05/26 11:41:43;;;;;;;19.95;11.13;;;20.60;99.90;;;;;;4995888;28;20038;-61
2023/05/26 11:44:13;;;;;;;19.42;11.32;;;20.50;99.90;;;;;;4978216;28;20054;-61
2023/05/26 11:46:40;;;;;;;20.30;11.97;;;20.60;99.90;;;;;;4994803;28;20041;-61
2023/05/26 11:49:13;;;;;;;21.08;11.02;;;20.60;99.90;;;;;;4995818;28;20033;-61
2023/05/26 11:51:48;;;;;;;19.75;11.60;;;20.40;99.90;;;;;;4996057;28;20031;-61
2023/05/26 11:54:14;;;;;;;20.77;11.77;;;20.30;99.90;;;;;;4995503;28;20058;-62
2023/05/26 11:56:42;;;;;;;15.98;11.35;;;20.30;99.90;;;;;;4995518;28;20038;-61
2023/05/26 11:59:15;;;;;;;20.33;12.52;;;20.20;99.90;;;;;;4977675;28;20093;-61
2023/05/26 12:01:45;;;;;;;19.63;12.75;;;20.20;99.90;;;;;;4980678;28;20031;-61
2023/05/26 12:04:11;;;;;;;20.63;12.73;;;19.90;99.90;;;;;;4976032;28;20043;-60
2023/05/26 12:06:44;;;;;;;22.63;13.00;;;19.80;99.90;;;;;;4976108;28;20038;-61
2023/05/26 12:09:22;;;;;;;20.95;13.30;;;19.90;99.90;;;;;;4975722;28;20507;-60
2023/05/26 12:11:52;;;;;;;28.38;15.68;;;20.00;99.90;;;;;;4975871;28;20060;-61
2023/05/26 12:14:21;;;;;;;25.10;14.43;;;20.10;99.90;;;;;;4988097;28;20037;-61
2023/05/26 12:16:54;;;;;;;21.90;14.23;;;20.10;99.90;;;;;;4995626;28;20022;-60
2023/05/26 12:19:27;;;;;;;22.50;14.30;;;20.10;99.90;;;;;;4994419;28;20072;-60
2023/05/26 12:22:00;;;;;;;21.92;12.43;;;20.20;99.90;;;;;;4995175;28;20033;-60
2023/05/26 12:24:30;;;;;;;23.88;14.45;;;20.20;99.90;;;;;;4999474;28;20498;-61
2023/05/26 12:26:56;;;;;;;21.83;13.95;;;20.30;99.90;;;;;;4999603;28;20033;-60
2023/05/26 12:29:22;;;;;;;22.05;13.02;;;20.20;99.90;;;;;;4993323;28;20026;-61
2023/05/26 12:31:50;;;;;;;30.55;16.35;;;20.20;99.90;;;;;;4986369;28;20027;-61
2023/05/26 12:34:27;;;;;;;30.75;16.67;;;20.50;99.90;;;;;;4994743;28;20026;-62
2023/05/26 12:36:53;;;;;;;24.13;15.10;;;20.40;99.90;;;;;;4995070;28;20030;-60